Juergen K — PBKV — position and weather

sailwx.info

Track history (hours):
 
Tides and Currents Weather Stations Pressure Air Temp Water Temp Dewpoint Dewpoint Depression Visibility Wind Speed Wind Dir Waves Ship Positions

Juergen K

Last reported at 2015-Mar-20 20:32 UTC. Time now 2015-Mar-28 14:24 UTC.
Position N 43°21' W 003°03'.

Length 89 m; draft 5.5 m.

Type: Cargo ship. MMSI: 244329000.

Date/timePositionNaut miles runAvg speedWind from/ knotsBaromVisibWave heightAir tempDewpointWater temp
2015-Mar-20 20:32N 43°21' W 003°03'0 0.0
2015-Mar-20 19:32N 43°21' W 003°03'0 0.0
2015-Mar-20 18:32N 43°21' W 003°03'  
2015-Mar-18 13:15N 43°41' W 005°33'8 9.7
2015-Mar-18 12:28N 43°42' W 005°44'12 9.9
2015-Mar-18 11:16N 43°43' W 006°00'343 7.3
2015-Mar-16 12:31N 38°47' W 009°51'9 8.9
2015-Mar-16 11:33N 38°38' W 009°50'9 8.8
2015-Mar-16 10:32N 38°30' W 009°47'9 8.8
2015-Mar-16 09:32N 38°21' W 009°44'9 8.8
2015-Mar-16 08:32N 38°12' W 009°42'19 9.4
2015-Mar-16 06:30N 37°54' W 009°36'9 9.2
2015-Mar-16 05:30N 37°45' W 009°33'9 9.2
2015-Mar-16 04:32N 37°36' W 009°31'28 9.1
2015-Mar-16 01:30N 37°09' W 009°23'9 8.8
2015-Mar-16 00:32N 37°01' W 009°20'9 8.9
2015-Mar-15 23:33N 36°53' W 009°17'9 8.9
2015-Mar-15 22:32N 36°46' W 009°10'9 8.9
2015-Mar-15 21:29N 36°43' W 008°58'11 9.1
2015-Mar-15 20:17N 36°41' W 008°45'7 8.9
2015-Mar-15 19:27N 36°38' W 008°37'8 8.9
2015-Mar-15 18:33N 36°36' W 008°27'9 9.1
2015-Mar-15 17:33N 36°33' W 008°16'22 9.4
2015-Mar-15 15:15N 36°28' W 007°50'120 9.5
2015-Mar-15 02:33N 35°59' W 005°25'8 7.5
2015-Mar-15 01:33N 35°54' W 005°19'1 0.5
2015-Mar-15 00:32N 35°54' W 005°18'0 0.0
2015-Mar-14 23:33N 35°54' W 005°18'2 1.7
2015-Mar-14 22:34N 35°55' W 005°18'4 3.7
2015-Mar-14 21:33N 35°58' W 005°15'251 9.7
2015-Mar-13 19:33N 37°19' W 000°18'10 9.6
2015-Mar-13 18:33N 37°23' W 000°08'11 9.5
2015-Mar-13 17:24N 37°29' E 000°04'140 9.9
2015-Mar-13 03:15N 38°39' E 002°38'1810.3
2015-Mar-13 01:32N 38°48' E 002°58'1010.1
2015-Mar-13 00:33N 38°52' E 003°08'1010.0
2015-Mar-12 23:33N 38°58' E 003°20'1010.2
2015-Mar-12 22:33N 39°02' E 003°31'1010.2
2015-Mar-12 21:32N 39°07' E 003°43'41 9.5
2015-Mar-12 17:12N 39°26' E 004°30'  
Track history (hours):
 
Tides and Currents Weather Stations Pressure Air Temp Water Temp Dewpoint Dewpoint Depression Visibility Wind Speed Wind Dir Waves Ship Positions

Juergen K

Last reported at 2015-Mar-20 20:32 UTC. Time now 2015-Mar-28 14:24 UTC.
Position N 43°21' W 003°03'.

Length 89 m; draft 5.5 m.

Type: Cargo ship. MMSI: 244329000.

Date/timePositionNaut miles runAvg speedWind from/ knotsBaromVisibWave heightAir tempDewpointWater temp
2015-Mar-20 20:32N 43°21' W 003°03'0 0.0
2015-Mar-20 19:32N 43°21' W 003°03'0 0.0
2015-Mar-20 18:32N 43°21' W 003°03'  
2015-Mar-18 13:15N 43°41' W 005°33'8 9.7
2015-Mar-18 12:28N 43°42' W 005°44'12 9.9
2015-Mar-18 11:16N 43°43' W 006°00'343 7.3
2015-Mar-16 12:31N 38°47' W 009°51'9 8.9
2015-Mar-16 11:33N 38°38' W 009°50'9 8.8
2015-Mar-16 10:32N 38°30' W 009°47'9 8.8
2015-Mar-16 09:32N 38°21' W 009°44'9 8.8
2015-Mar-16 08:32N 38°12' W 009°42'19 9.4
2015-Mar-16 06:30N 37°54' W 009°36'9 9.2
2015-Mar-16 05:30N 37°45' W 009°33'9 9.2
2015-Mar-16 04:32N 37°36' W 009°31'28 9.1
2015-Mar-16 01:30N 37°09' W 009°23'9 8.8
2015-Mar-16 00:32N 37°01' W 009°20'9 8.9
2015-Mar-15 23:33N 36°53' W 009°17'9 8.9
2015-Mar-15 22:32N 36°46' W 009°10'9 8.9
2015-Mar-15 21:29N 36°43' W 008°58'11 9.1
2015-Mar-15 20:17N 36°41' W 008°45'7 8.9
2015-Mar-15 19:27N 36°38' W 008°37'8 8.9
2015-Mar-15 18:33N 36°36' W 008°27'9 9.1
2015-Mar-15 17:33N 36°33' W 008°16'22 9.4
2015-Mar-15 15:15N 36°28' W 007°50'120 9.5
2015-Mar-15 02:33N 35°59' W 005°25'8 7.5
2015-Mar-15 01:33N 35°54' W 005°19'1 0.5
2015-Mar-15 00:32N 35°54' W 005°18'0 0.0
2015-Mar-14 23:33N 35°54' W 005°18'2 1.7
2015-Mar-14 22:34N 35°55' W 005°18'4 3.7
2015-Mar-14 21:33N 35°58' W 005°15'251 9.7
2015-Mar-13 19:33N 37°19' W 000°18'10 9.6
2015-Mar-13 18:33N 37°23' W 000°08'11 9.5
2015-Mar-13 17:24N 37°29' E 000°04'140 9.9
2015-Mar-13 03:15N 38°39' E 002°38'1810.3
2015-Mar-13 01:32N 38°48' E 002°58'1010.1
2015-Mar-13 00:33N 38°52' E 003°08'1010.0
2015-Mar-12 23:33N 38°58' E 003°20'1010.2
2015-Mar-12 22:33N 39°02' E 003°31'1010.2
2015-Mar-12 21:32N 39°07' E 003°43'41 9.5
2015-Mar-12 17:12N 39°26' E 004°30'  

Dump ship's entire track history